sensor_id;sensor_type;location;lat;lon;timestamp;temperature;humidity
32524;DHT22;18965;52.242;20.886;2022-12-15T00:02:27;-0.70;76.80
32524;DHT22;18965;52.242;20.886;2022-12-15T00:05:13;-0.70;76.90
32524;DHT22;18965;52.242;20.886;2022-12-15T00:08:08;-0.70;76.80
32524;DHT22;18965;52.242;20.886;2022-12-15T00:10:54;-0.70;76.70
32524;DHT22;18965;52.242;20.886;2022-12-15T00:13:38;-0.70;76.80
32524;DHT22;18965;52.242;20.886;2022-12-15T00:16:23;-0.70;76.90
32524;DHT22;18965;52.242;20.886;2022-12-15T00:19:09;-0.70;77.00
32524;DHT22;18965;52.242;20.886;2022-12-15T00:21:54;-0.70;77.10
32524;DHT22;18965;52.242;20.886;2022-12-15T00:24:38;-0.70;77.10
32524;DHT22;18965;52.242;20.886;2022-12-15T00:27:22;-0.70;77.00
32524;DHT22;18965;52.242;20.886;2022-12-15T00:30:06;-0.70;77.10
32524;DHT22;18965;52.242;20.886;2022-12-15T00:32:51;-0.70;77.20
32524;DHT22;18965;52.242;20.886;2022-12-15T00:35:40;-0.70;77.30
32524;DHT22;18965;52.242;20.886;2022-12-15T00:38:24;-0.70;77.20
32524;DHT22;18965;52.242;20.886;2022-12-15T00:41:25;-0.70;77.40
32524;DHT22;18965;52.242;20.886;2022-12-15T00:43:51;-0.70;77.60
32524;DHT22;18965;52.242;20.886;2022-12-15T00:46:17;-0.60;77.60
32524;DHT22;18965;52.242;20.886;2022-12-15T00:49:02;-0.60;77.70
32524;DHT22;18965;52.242;20.886;2022-12-15T00:51:28;-0.60;77.60
32524;DHT22;18965;52.242;20.886;2022-12-15T00:54:12;-0.60;77.60
32524;DHT22;18965;52.242;20.886;2022-12-15T00:56:56;-0.50;77.50
32524;DHT22;18965;52.242;20.886;2022-12-15T00:59:41;-0.50;77.40
32524;DHT22;18965;52.242;20.886;2022-12-15T01:02:25;-0.50;77.40
32524;DHT22;18965;52.242;20.886;2022-12-15T01:05:10;-0.50;77.20
32524;DHT22;18965;52.242;20.886;2022-12-15T01:07:54;-0.50;77.20
32524;DHT22;18965;52.242;20.886;2022-12-15T01:10:38;-0.50;77.30
32524;DHT22;18965;52.242;20.886;2022-12-15T01:13:22;-0.50;77.30
32524;DHT22;18965;52.242;20.886;2022-12-15T01:16:11;-0.40;77.60
32524;DHT22;18965;52.242;20.886;2022-12-15T01:18:55;-0.40;77.60
32524;DHT22;18965;52.242;20.886;2022-12-15T01:21:39;-0.40;77.70
32524;DHT22;18965;52.242;20.886;2022-12-15T01:24:05;-0.40;77.70
32524;DHT22;18965;52.242;20.886;2022-12-15T01:26:31;-0.30;77.80
32524;DHT22;18965;52.242;20.886;2022-12-15T01:28:57;-0.30;77.70
32524;DHT22;18965;52.242;20.886;2022-12-15T01:31:23;-0.30;77.60
32524;DHT22;18965;52.242;20.886;2022-12-15T01:33:52;-0.30;77.40
32524;DHT22;18965;52.242;20.886;2022-12-15T01:36:18;-0.30;77.50
32524;DHT22;18965;52.242;20.886;2022-12-15T01:38:44;-0.20;77.50
32524;DHT22;18965;52.242;20.886;2022-12-15T01:41:50;-0.20;77.40
32524;DHT22;18965;52.242;20.886;2022-12-15T01:48:19;-0.20;77.50
32524;DHT22;18965;52.242;20.886;2022-12-15T01:51:30;-0.20;77.50
32524;DHT22;18965;52.242;20.886;2022-12-15T01:55:02;-0.10;77.70
32524;DHT22;18965;52.242;20.886;2022-12-15T01:58:29;-0.10;77.80
32524;DHT22;18965;52.242;20.886;2022-12-15T02:01:34;-0.10;77.50
32524;DHT22;18965;52.242;20.886;2022-12-15T02:04:02;0.00;77.60
32524;DHT22;18965;52.242;20.886;2022-12-15T02:06:28;0.00;77.60
32524;DHT22;18965;52.242;20.886;2022-12-15T02:08:56;0.00;77.70
32524;DHT22;18965;52.242;20.886;2022-12-15T02:28:34;0.10;77.20
32524;DHT22;18965;52.242;20.886;2022-12-15T02:31:00;0.10;77.20
32524;DHT22;18965;52.242;20.886;2022-12-15T02:33:52;0.10;77.30
32524;DHT22;18965;52.242;20.886;2022-12-15T02:36:31;0.10;77.30
32524;DHT22;18965;52.242;20.886;2022-12-15T02:38:58;0.10;77.30
32524;DHT22;18965;52.242;20.886;2022-12-15T02:41:34;0.00;77.20
32524;DHT22;18965;52.242;20.886;2022-12-15T02:47:09;0.00;77.10
32524;DHT22;18965;52.242;20.886;2022-12-15T02:52:41;-0.10;77.10
32524;DHT22;18965;52.242;20.886;2022-12-15T02:58:43;-0.10;77.30
32524;DHT22;18965;52.242;20.886;2022-12-15T03:01:23;-0.20;77.30
32524;DHT22;18965;52.242;20.886;2022-12-15T03:03:49;-0.10;77.40
32524;DHT22;18965;52.242;20.886;2022-12-15T03:06:16;-0.20;77.50
32524;DHT22;18965;52.242;20.886;2022-12-15T03:08:42;-0.20;77.70
32524;DHT22;18965;52.242;20.886;2022-12-15T03:11:08;-0.20;77.70
32524;DHT22;18965;52.242;20.886;2022-12-15T03:13:34;-0.10;77.70
32524;DHT22;18965;52.242;20.886;2022-12-15T03:16:00;-0.10;77.80
32524;DHT22;18965;52.242;20.886;2022-12-15T03:18:26;-0.10;77.70
32524;DHT22;18965;52.242;20.886;2022-12-15T03:20:51;-0.10;77.60
32524;DHT22;18965;52.242;20.886;2022-12-15T03:23:18;-0.10;77.70
32524;DHT22;18965;52.242;20.886;2022-12-15T03:25:44;-0.10;77.80
32524;DHT22;18965;52.242;20.886;2022-12-15T03:28:11;0.00;77.90
32524;DHT22;18965;52.242;20.886;2022-12-15T03:30:37;0.00;78.00
32524;DHT22;18965;52.242;20.886;2022-12-15T03:33:42;0.00;78.00
32524;DHT22;18965;52.242;20.886;2022-12-15T03:36:19;0.10;78.10
32524;DHT22;18965;52.242;20.886;2022-12-15T03:39:06;0.10;78.00
32524;DHT22;18965;52.242;20.886;2022-12-15T03:41:33;0.10;77.90
32524;DHT22;18965;52.242;20.886;2022-12-15T03:44:02;0.10;77.80
32524;DHT22;18965;52.242;20.886;2022-12-15T03:46:49;0.10;77.80
32524;DHT22;18965;52.242;20.886;2022-12-15T03:49:37;0.10;77.90
32524;DHT22;18965;52.242;20.886;2022-12-15T03:52:04;0.20;77.90
32524;DHT22;18965;52.242;20.886;2022-12-15T03:55:07;0.20;77.80
32524;DHT22;18965;52.242;20.886;2022-12-15T03:57:53;0.20;77.60
32524;DHT22;18965;52.242;20.886;2022-12-15T04:00:42;0.20;77.60
32524;DHT22;18965;52.242;20.886;2022-12-15T04:03:11;0.20;77.60
32524;DHT22;18965;52.242;20.886;2022-12-15T04:05:40;0.20;77.60
32524;DHT22;18965;52.242;20.886;2022-12-15T04:08:45;0.20;77.50
32524;DHT22;18965;52.242;20.886;2022-12-15T04:11:52;0.20;77.50
32524;DHT22;18965;52.242;20.886;2022-12-15T04:14:59;0.20;77.50
32524;DHT22;18965;52.242;20.886;2022-12-15T04:17:34;0.20;77.30
32524;DHT22;18965;52.242;20.886;2022-12-15T04:20:00;0.20;77.40
32524;DHT22;18965;52.242;20.886;2022-12-15T04:22:41;0.20;77.30
32524;DHT22;18965;52.242;20.886;2022-12-15T04:25:44;0.20;77.40
32524;DHT22;18965;52.242;20.886;2022-12-15T04:28:48;1.00;77.80
32524;DHT22;18965;52.242;20.886;2022-12-15T04:31:53;0.30;77.40
32524;DHT22;18965;52.242;20.886;2022-12-15T04:35:01;0.30;77.40
32524;DHT22;18965;52.242;20.886;2022-12-15T04:38:06;0.30;77.50
32524;DHT22;18965;52.242;20.886;2022-12-15T04:41:11;0.30;77.50
32524;DHT22;18965;52.242;20.886;2022-12-15T04:43:56;0.30;77.30
32524;DHT22;18965;52.242;20.886;2022-12-15T04:47:00;0.30;77.30
32524;DHT22;18965;52.242;20.886;2022-12-15T04:49:47;0.30;77.40
32524;DHT22;18965;52.242;20.886;2022-12-15T04:53:01;0.30;77.50
32524;DHT22;18965;52.242;20.886;2022-12-15T04:56:00;0.30;77.50
32524;DHT22;18965;52.242;20.886;2022-12-15T04:59:05;0.30;77.60
32524;DHT22;18965;52.242;20.886;2022-12-15T05:02:09;0.30;77.70
32524;DHT22;18965;52.242;20.886;2022-12-15T05:04:58;0.30;77.50
32524;DHT22;18965;52.242;20.886;2022-12-15T05:08:22;0.30;77.60
32524;DHT22;18965;52.242;20.886;2022-12-15T05:11:23;0.30;77.80
32524;DHT22;18965;52.242;20.886;2022-12-15T05:14:33;0.30;77.80
32524;DHT22;18965;52.242;20.886;2022-12-15T05:17:18;0.30;77.70
32524;DHT22;18965;52.242;20.886;2022-12-15T05:20:39;0.40;77.60
32524;DHT22;18965;52.242;20.886;2022-12-15T05:24:03;0.40;77.60
32524;DHT22;18965;52.242;20.886;2022-12-15T05:26:49;0.40;77.50
32524;DHT22;18965;52.242;20.886;2022-12-15T05:29:53;0.40;77.40
32524;DHT22;18965;52.242;20.886;2022-12-15T05:32:44;0.40;77.30
32524;DHT22;18965;52.242;20.886;2022-12-15T05:35:30;0.40;77.40
32524;DHT22;18965;52.242;20.886;2022-12-15T05:37:59;0.40;77.30
32524;DHT22;18965;52.242;20.886;2022-12-15T05:41:07;0.40;77.40
32524;DHT22;18965;52.242;20.886;2022-12-15T05:43:33;0.40;77.30
32524;DHT22;18965;52.242;20.886;2022-12-15T05:46:06;0.30;77.30
32524;DHT22;18965;52.242;20.886;2022-12-15T05:48:42;0.30;77.40
32524;DHT22;18965;52.242;20.886;2022-12-15T05:51:09;0.30;77.30
32524;DHT22;18965;52.242;20.886;2022-12-15T05:53:56;0.30;77.40
32524;DHT22;18965;52.242;20.886;2022-12-15T05:56:43;0.40;77.40
32524;DHT22;18965;52.242;20.886;2022-12-15T06:00:08;0.30;77.30
32524;DHT22;18965;52.242;20.886;2022-12-15T06:03:23;0.40;77.30
32524;DHT22;18965;52.242;20.886;2022-12-15T06:06:51;0.30;77.10
32524;DHT22;18965;52.242;20.886;2022-12-15T06:14:02;0.30;77.20
32524;DHT22;18965;52.242;20.886;2022-12-15T06:17:27;0.30;77.10
32524;DHT22;18965;52.242;20.886;2022-12-15T06:21:06;0.30;77.10
32524;DHT22;18965;52.242;20.886;2022-12-15T06:24:41;0.20;77.00
32524;DHT22;18965;52.242;20.886;2022-12-15T06:28:16;0.20;77.00
32524;DHT22;18965;52.242;20.886;2022-12-15T06:31:47;0.20;77.10
32524;DHT22;18965;52.242;20.886;2022-12-15T06:38:31;0.20;77.10
32524;DHT22;18965;52.242;20.886;2022-12-15T06:40:59;0.20;77.10
32524;DHT22;18965;52.242;20.886;2022-12-15T06:43:26;0.20;77.00
32524;DHT22;18965;52.242;20.886;2022-12-15T06:45:52;0.20;77.00
32524;DHT22;18965;52.242;20.886;2022-12-15T06:48:19;0.10;77.00
32524;DHT22;18965;52.242;20.886;2022-12-15T06:50:45;0.20;77.20
32524;DHT22;18965;52.242;20.886;2022-12-15T06:53:13;0.20;77.10
32524;DHT22;18965;52.242;20.886;2022-12-15T06:55:39;0.20;77.20
32524;DHT22;18965;52.242;20.886;2022-12-15T06:58:05;0.20;77.10
32524;DHT22;18965;52.242;20.886;2022-12-15T07:00:33;0.20;77.00
32524;DHT22;18965;52.242;20.886;2022-12-15T07:03:01;0.20;76.90
32524;DHT22;18965;52.242;20.886;2022-12-15T07:05:28;0.20;76.80
32524;DHT22;18965;52.242;20.886;2022-12-15T07:07:53;0.20;76.80
32524;DHT22;18965;52.242;20.886;2022-12-15T07:10:19;0.20;76.90
32524;DHT22;18965;52.242;20.886;2022-12-15T07:12:45;0.20;76.70
32524;DHT22;18965;52.242;20.886;2022-12-15T07:15:11;0.20;76.80
32524;DHT22;18965;52.242;20.886;2022-12-15T07:17:37;0.20;76.70
32524;DHT22;18965;52.242;20.886;2022-12-15T07:20:06;0.20;76.60
32524;DHT22;18965;52.242;20.886;2022-12-15T07:22:32;0.20;76.70
32524;DHT22;18965;52.242;20.886;2022-12-15T07:24:58;0.20;76.70
32524;DHT22;18965;52.242;20.886;2022-12-15T07:27:24;0.20;76.60
32524;DHT22;18965;52.242;20.886;2022-12-15T07:29:50;0.20;76.60
32524;DHT22;18965;52.242;20.886;2022-12-15T07:32:17;0.20;76.50
32524;DHT22;18965;52.242;20.886;2022-12-15T07:34:43;0.20;76.50
32524;DHT22;18965;52.242;20.886;2022-12-15T07:37:09;0.30;76.50
32524;DHT22;18965;52.242;20.886;2022-12-15T07:39:35;0.30;76.50
32524;DHT22;18965;52.242;20.886;2022-12-15T07:42:01;0.30;76.50
32524;DHT22;18965;52.242;20.886;2022-12-15T07:44:27;0.30;76.40
32524;DHT22;18965;52.242;20.886;2022-12-15T07:46:54;0.40;76.50
32524;DHT22;18965;52.242;20.886;2022-12-15T07:49:20;0.40;76.40
32524;DHT22;18965;52.242;20.886;2022-12-15T07:51:47;0.40;76.50
32524;DHT22;18965;52.242;20.886;2022-12-15T07:54:14;0.40;76.50
32524;DHT22;18965;52.242;20.886;2022-12-15T07:56:40;0.40;76.50
32524;DHT22;18965;52.242;20.886;2022-12-15T07:59:07;0.40;76.50
32524;DHT22;18965;52.242;20.886;2022-12-15T08:01:33;0.50;76.50
32524;DHT22;18965;52.242;20.886;2022-12-15T08:04:03;0.50;76.50
32524;DHT22;18965;52.242;20.886;2022-12-15T08:06:29;0.50;76.40
32524;DHT22;18965;52.242;20.886;2022-12-15T08:08:55;0.60;76.30
32524;DHT22;18965;52.242;20.886;2022-12-15T08:11:22;0.60;76.20
32524;DHT22;18965;52.242;20.886;2022-12-15T08:13:50;0.60;76.10
32524;DHT22;18965;52.242;20.886;2022-12-15T08:16:17;0.60;76.20
32524;DHT22;18965;52.242;20.886;2022-12-15T08:18:43;0.60;76.10
32524;DHT22;18965;52.242;20.886;2022-12-15T08:21:10;0.60;76.00
32524;DHT22;18965;52.242;20.886;2022-12-15T08:23:36;0.70;76.00
32524;DHT22;18965;52.242;20.886;2022-12-15T08:26:06;0.70;75.90
32524;DHT22;18965;52.242;20.886;2022-12-15T08:28:36;0.70;75.80
32524;DHT22;18965;52.242;20.886;2022-12-15T08:31:10;0.70;75.70
32524;DHT22;18965;52.242;20.886;2022-12-15T08:33:36;0.70;75.70
32524;DHT22;18965;52.242;20.886;2022-12-15T08:36:05;0.80;75.70
32524;DHT22;18965;52.242;20.886;2022-12-15T08:38:32;0.80;75.70
32524;DHT22;18965;52.242;20.886;2022-12-15T08:41:06;0.80;75.70
32524;DHT22;18965;52.242;20.886;2022-12-15T08:43:33;0.80;75.60
32524;DHT22;18965;52.242;20.886;2022-12-15T08:45:59;0.80;75.80
32524;DHT22;18965;52.242;20.886;2022-12-15T08:48:25;0.90;75.70
32524;DHT22;18965;52.242;20.886;2022-12-15T08:50:52;0.90;75.70
32524;DHT22;18965;52.242;20.886;2022-12-15T08:53:19;0.90;75.70
32524;DHT22;18965;52.242;20.886;2022-12-15T08:55:45;1.00;75.80
32524;DHT22;18965;52.242;20.886;2022-12-15T08:58:10;1.00;75.30
32524;DHT22;18965;52.242;20.886;2022-12-15T09:00:36;1.00;75.00
32524;DHT22;18965;52.242;20.886;2022-12-15T09:03:02;1.00;75.20
32524;DHT22;18965;52.242;20.886;2022-12-15T09:05:28;1.00;75.20
32524;DHT22;18965;52.242;20.886;2022-12-15T09:07:56;1.10;75.30
32524;DHT22;18965;52.242;20.886;2022-12-15T09:10:23;1.10;75.20
32524;DHT22;18965;52.242;20.886;2022-12-15T09:12:50;1.10;75.10
32524;DHT22;18965;52.242;20.886;2022-12-15T09:15:16;1.10;75.00
32524;DHT22;18965;52.242;20.886;2022-12-15T09:17:42;1.10;74.90
32524;DHT22;18965;52.242;20.886;2022-12-15T09:20:09;1.20;74.80
32524;DHT22;18965;52.242;20.886;2022-12-15T09:22:34;1.20;74.60
32524;DHT22;18965;52.242;20.886;2022-12-15T09:25:04;1.20;74.60
32524;DHT22;18965;52.242;20.886;2022-12-15T09:27:30;1.20;74.50
32524;DHT22;18965;52.242;20.886;2022-12-15T09:29:56;1.20;74.60
32524;DHT22;18965;52.242;20.886;2022-12-15T09:32:23;1.20;74.60
32524;DHT22;18965;52.242;20.886;2022-12-15T09:34:52;1.30;74.60
32524;DHT22;18965;52.242;20.886;2022-12-15T09:37:18;1.30;74.60
32524;DHT22;18965;52.242;20.886;2022-12-15T09:39:44;1.30;74.30
32524;DHT22;18965;52.242;20.886;2022-12-15T09:42:29;1.30;74.40
32524;DHT22;18965;52.242;20.886;2022-12-15T09:45:17;1.30;74.20
32524;DHT22;18965;52.242;20.886;2022-12-15T09:50:16;1.30;74.00
32524;DHT22;18965;52.242;20.886;2022-12-15T09:52:50;1.30;74.10
32524;DHT22;18965;52.242;20.886;2022-12-15T09:55:20;1.30;74.10
32524;DHT22;18965;52.242;20.886;2022-12-15T09:58:35;1.40;74.00
32524;DHT22;18965;52.242;20.886;2022-12-15T10:01:00;1.40;73.80
32524;DHT22;18965;52.242;20.886;2022-12-15T10:06:20;1.40;74.00
32524;DHT22;18965;52.242;20.886;2022-12-15T10:08:55;1.40;74.00
32524;DHT22;18965;52.242;20.886;2022-12-15T10:19:51;1.60;73.80
32524;DHT22;18965;52.242;20.886;2022-12-15T10:22:25;1.60;73.70
32524;DHT22;18965;52.242;20.886;2022-12-15T10:24:52;1.60;73.50
32524;DHT22;18965;52.242;20.886;2022-12-15T10:30:06;1.60;73.20
32524;DHT22;18965;52.242;20.886;2022-12-15T10:35:28;1.60;73.30
32524;DHT22;18965;52.242;20.886;2022-12-15T10:38:02;1.60;73.20
32524;DHT22;18965;52.242;20.886;2022-12-15T10:41:03;1.70;73.00
32524;DHT22;18965;52.242;20.886;2022-12-15T10:43:33;1.60;72.40
32524;DHT22;18965;52.242;20.886;2022-12-15T10:46:06;1.60;72.30
32524;DHT22;18965;52.242;20.886;2022-12-15T10:48:37;1.60;72.20
32524;DHT22;18965;52.242;20.886;2022-12-15T10:56:25;1.50;72.30
32524;DHT22;18965;52.242;20.886;2022-12-15T10:58:57;1.50;72.10
32524;DHT22;18965;52.242;20.886;2022-12-15T11:01:26;1.40;72.10
32524;DHT22;18965;52.242;20.886;2022-12-15T11:03:52;1.50;72.30
32524;DHT22;18965;52.242;20.886;2022-12-15T11:06:24;1.40;72.30
32524;DHT22;18965;52.242;20.886;2022-12-15T11:08:53;1.40;71.70
32524;DHT22;18965;52.242;20.886;2022-12-15T11:14:17;1.30;71.90
32524;DHT22;18965;52.242;20.886;2022-12-15T11:16:54;1.30;72.20
32524;DHT22;18965;52.242;20.886;2022-12-15T11:19:46;1.30;72.30
32524;DHT22;18965;52.242;20.886;2022-12-15T11:25:21;1.20;72.20
32524;DHT22;18965;52.242;20.886;2022-12-15T11:27:49;1.20;72.10
32524;DHT22;18965;52.242;20.886;2022-12-15T11:30:20;1.20;72.20
32524;DHT22;18965;52.242;20.886;2022-12-15T11:32:57;1.10;71.60
32524;DHT22;18965;52.242;20.886;2022-12-15T11:38:59;1.00;71.80
32524;DHT22;18965;52.242;20.886;2022-12-15T11:44:24;0.90;71.70
32524;DHT22;18965;52.242;20.886;2022-12-15T11:47:19;0.90;71.80
32524;DHT22;18965;52.242;20.886;2022-12-15T11:58:27;0.70;72.60
32524;DHT22;18965;52.242;20.886;2022-12-15T12:07:10;0.60;72.70
32524;DHT22;18965;52.242;20.886;2022-12-15T12:09:46;0.70;72.80
32524;DHT22;18965;52.242;20.886;2022-12-15T12:12:28;0.60;72.70
32524;DHT22;18965;52.242;20.886;2022-12-15T12:17:48;0.60;72.80
32524;DHT22;18965;52.242;20.886;2022-12-15T12:20:26;0.60;72.90
32524;DHT22;18965;52.242;20.886;2022-12-15T12:23:26;0.60;72.90
32524;DHT22;18965;52.242;20.886;2022-12-15T12:26:16;0.60;72.90
32524;DHT22;18965;52.242;20.886;2022-12-15T12:28:52;0.60;73.20
32524;DHT22;18965;52.242;20.886;2022-12-15T12:31:56;0.60;73.10
32524;DHT22;18965;52.242;20.886;2022-12-15T12:37:42;0.60;73.20
32524;DHT22;18965;52.242;20.886;2022-12-15T12:43:10;0.60;73.40
32524;DHT22;18965;52.242;20.886;2022-12-15T12:45:52;0.60;73.50
32524;DHT22;18965;52.242;20.886;2022-12-15T12:48:27;0.60;73.50
32524;DHT22;18965;52.242;20.886;2022-12-15T12:51:23;0.60;73.40
32524;DHT22;18965;52.242;20.886;2022-12-15T12:53:50;0.70;73.60
32524;DHT22;18965;52.242;20.886;2022-12-15T12:56:46;0.60;73.60
32524;DHT22;18965;52.242;20.886;2022-12-15T13:10:24;0.70;73.50
32524;DHT22;18965;52.242;20.886;2022-12-15T13:12:52;0.70;73.40
32524;DHT22;18965;52.242;20.886;2022-12-15T13:15:38;0.70;73.40
32524;DHT22;18965;52.242;20.886;2022-12-15T13:18:22;0.70;73.40
32524;DHT22;18965;52.242;20.886;2022-12-15T13:20:52;0.60;73.40
32524;DHT22;18965;52.242;20.886;2022-12-15T13:28:40;0.60;73.50
32524;DHT22;18965;52.242;20.886;2022-12-15T13:33:50;0.60;73.70
32524;DHT22;18965;52.242;20.886;2022-12-15T13:47:29;0.40;73.60
32524;DHT22;18965;52.242;20.886;2022-12-15T13:50:18;0.40;73.90
32524;DHT22;18965;52.242;20.886;2022-12-15T13:52:52;0.40;73.90
32524;DHT22;18965;52.242;20.886;2022-12-15T13:55:24;0.40;73.90
32524;DHT22;18965;52.242;20.886;2022-12-15T13:58:17;0.40;73.80
32524;DHT22;18965;52.242;20.886;2022-12-15T14:00:52;0.30;73.90
32524;DHT22;18965;52.242;20.886;2022-12-15T14:03:18;0.30;73.90
32524;DHT22;18965;52.242;20.886;2022-12-15T14:05:58;0.30;73.80
32524;DHT22;18965;52.242;20.886;2022-12-15T14:08:26;0.20;73.70
32524;DHT22;18965;52.242;20.886;2022-12-15T14:10:58;0.20;73.70
32524;DHT22;18965;52.242;20.886;2022-12-15T14:13:27;0.10;73.70
32524;DHT22;18965;52.242;20.886;2022-12-15T14:15:57;0.10;73.80
32524;DHT22;18965;52.242;20.886;2022-12-15T14:18:32;0.10;73.90
32524;DHT22;18965;52.242;20.886;2022-12-15T14:21:00;0.00;73.90
32524;DHT22;18965;52.242;20.886;2022-12-15T14:23:46;0.00;73.90
32524;DHT22;18965;52.242;20.886;2022-12-15T14:26:14;-0.10;74.00
32524;DHT22;18965;52.242;20.886;2022-12-15T14:28:45;-0.10;74.20
32524;DHT22;18965;52.242;20.886;2022-12-15T14:31:13;-0.10;74.20
32524;DHT22;18965;52.242;20.886;2022-12-15T14:33:43;-0.10;74.40
32524;DHT22;18965;52.242;20.886;2022-12-15T14:36:12;-0.10;74.50
32524;DHT22;18965;52.242;20.886;2022-12-15T14:38:57;-0.10;74.50
32524;DHT22;18965;52.242;20.886;2022-12-15T14:41:26;-0.10;74.40
32524;DHT22;18965;52.242;20.886;2022-12-15T14:44:00;-0.20;74.40
32524;DHT22;18965;52.242;20.886;2022-12-15T14:46:27;-0.20;74.60
32524;DHT22;18965;52.242;20.886;2022-12-15T14:48:57;-0.20;74.70
32524;DHT22;18965;52.242;20.886;2022-12-15T14:51:26;-0.20;74.50
32524;DHT22;18965;52.242;20.886;2022-12-15T14:53:53;-0.20;74.40
32524;DHT22;18965;52.242;20.886;2022-12-15T14:59:01;-0.30;74.40
32524;DHT22;18965;52.242;20.886;2022-12-15T15:01:38;-0.30;74.60
32524;DHT22;18965;52.242;20.886;2022-12-15T15:04:28;-0.30;75.40
32524;DHT22;18965;52.242;20.886;2022-12-15T15:07:00;-0.30;74.60
32524;DHT22;18965;52.242;20.886;2022-12-15T15:09:32;-0.30;74.70
32524;DHT22;18965;52.242;20.886;2022-12-15T15:12:14;-0.30;74.80
32524;DHT22;18965;52.242;20.886;2022-12-15T15:14:47;-0.30;74.90
32524;DHT22;18965;52.242;20.886;2022-12-15T15:17:21;-0.40;75.00
32524;DHT22;18965;52.242;20.886;2022-12-15T15:19:53;-0.40;74.90
32524;DHT22;18965;52.242;20.886;2022-12-15T15:30:21;-0.30;75.40
32524;DHT22;18965;52.242;20.886;2022-12-15T15:45:06;-0.50;93.70
32524;DHT22;18965;52.242;20.886;2022-12-15T15:52:28;-0.40;74.00
32524;DHT22;18965;52.242;20.886;2022-12-15T15:54:57;-0.30;75.30
32524;DHT22;18965;52.242;20.886;2022-12-15T16:04:42;-0.30;74.90
32524;DHT22;18965;52.242;20.886;2022-12-15T16:07:29;-0.50;76.00
32524;DHT22;18965;52.242;20.886;2022-12-15T16:12:40;-0.30;88.00
32524;DHT22;18965;52.242;20.886;2022-12-15T16:15:19;-0.20;86.60
32524;DHT22;18965;52.242;20.886;2022-12-15T16:17:46;-0.40;74.80
32524;DHT22;18965;52.242;20.886;2022-12-15T16:20:13;-0.20;78.70
32524;DHT22;18965;52.242;20.886;2022-12-15T16:22:41;-0.40;74.00
32524;DHT22;18965;52.242;20.886;2022-12-15T16:25:25;-0.30;74.10
32524;DHT22;18965;52.242;20.886;2022-12-15T16:30:22;-0.30;74.40
32524;DHT22;18965;52.242;20.886;2022-12-15T16:32:49;-0.30;74.40
32524;DHT22;18965;52.242;20.886;2022-12-15T16:35:16;-0.30;74.30
32524;DHT22;18965;52.242;20.886;2022-12-15T16:37:43;-0.30;74.50
32524;DHT22;18965;52.242;20.886;2022-12-15T16:40:18;-0.20;81.40
32524;DHT22;18965;52.242;20.886;2022-12-15T16:42:50;-0.20;80.90
32524;DHT22;18965;52.242;20.886;2022-12-15T16:45:18;-0.20;74.70
32524;DHT22;18965;52.242;20.886;2022-12-15T16:47:44;-0.20;74.70
32524;DHT22;18965;52.242;20.886;2022-12-15T16:50:14;-0.30;74.70
32524;DHT22;18965;52.242;20.886;2022-12-15T16:52:42;-0.10;75.30
32524;DHT22;18965;52.242;20.886;2022-12-15T16:55:26;-0.20;74.70
32524;DHT22;18965;52.242;20.886;2022-12-15T16:57:54;-0.20;74.70
32524;DHT22;18965;52.242;20.886;2022-12-15T17:00:24;-0.20;74.70
32524;DHT22;18965;52.242;20.886;2022-12-15T17:02:51;-0.20;74.90
32524;DHT22;18965;52.242;20.886;2022-12-15T17:05:18;-0.20;79.00
32524;DHT22;18965;52.242;20.886;2022-12-15T17:07:56;-0.10;74.80
32524;DHT22;18965;52.242;20.886;2022-12-15T17:10:28;0.00;78.50
32524;DHT22;18965;52.242;20.886;2022-12-15T17:13:24;-0.10;74.90
32524;DHT22;18965;52.242;20.886;2022-12-15T17:15:52;-0.10;75.10
32524;DHT22;18965;52.242;20.886;2022-12-15T17:18:19;-0.10;78.20
32524;DHT22;18965;52.242;20.886;2022-12-15T17:23:16;0.10;77.20
32524;DHT22;18965;52.242;20.886;2022-12-15T17:25:45;0.90;76.60
32524;DHT22;18965;52.242;20.886;2022-12-15T17:28:23;0.00;77.10
32524;DHT22;18965;52.242;20.886;2022-12-15T17:33:27;0.00;75.00
32524;DHT22;18965;52.242;20.886;2022-12-15T17:36:08;0.00;78.00
32524;DHT22;18965;52.242;20.886;2022-12-15T17:43:29;0.60;76.60
32524;DHT22;18965;52.242;20.886;2022-12-15T17:45:55;0.20;77.70
32524;DHT22;18965;52.242;20.886;2022-12-15T17:48:50;0.40;77.60
32524;DHT22;18965;52.242;20.886;2022-12-15T17:51:54;0.20;77.00
32524;DHT22;18965;52.242;20.886;2022-12-15T17:54:20;0.20;76.80
32524;DHT22;18965;52.242;20.886;2022-12-15T17:56:49;0.10;75.10
32524;DHT22;18965;52.242;20.886;2022-12-15T17:59:18;0.20;75.00
32524;DHT22;18965;52.242;20.886;2022-12-15T18:01:47;0.10;76.20
32524;DHT22;18965;52.242;20.886;2022-12-15T18:04:14;0.20;74.80
32524;DHT22;18965;52.242;20.886;2022-12-15T18:06:42;0.20;76.30
32524;DHT22;18965;52.242;20.886;2022-12-15T18:09:37;0.10;76.00
32524;DHT22;18965;52.242;20.886;2022-12-15T18:12:25;0.30;76.10
32524;DHT22;18965;52.242;20.886;2022-12-15T18:14:52;0.20;74.80
32524;DHT22;18965;52.242;20.886;2022-12-15T18:17:20;0.30;76.30
32524;DHT22;18965;52.242;20.886;2022-12-15T18:19:47;0.20;75.50
32524;DHT22;18965;52.242;20.886;2022-12-15T18:25:29;-0.20;75.70
32524;DHT22;18965;52.242;20.886;2022-12-15T18:31:02;0.50;75.90
32524;DHT22;18965;52.242;20.886;2022-12-15T18:34:13;0.40;75.80
32524;DHT22;18965;52.242;20.886;2022-12-15T18:37:38;0.30;76.10
32524;DHT22;18965;52.242;20.886;2022-12-15T18:40:54;0.30;75.90
32524;DHT22;18965;52.242;20.886;2022-12-15T18:44:02;0.30;75.10
32524;DHT22;18965;52.242;20.886;2022-12-15T18:47:15;0.30;75.00
32524;DHT22;18965;52.242;20.886;2022-12-15T18:52:19;0.20;75.60
32524;DHT22;18965;52.242;20.886;2022-12-15T18:54:49;0.40;75.30
32524;DHT22;18965;52.242;20.886;2022-12-15T18:57:29;0.20;76.00
32524;DHT22;18965;52.242;20.886;2022-12-15T19:00:15;0.30;75.00
32524;DHT22;18965;52.242;20.886;2022-12-15T19:02:42;0.40;75.00
32524;DHT22;18965;52.242;20.886;2022-12-15T19:05:07;0.40;76.00
32524;DHT22;18965;52.242;20.886;2022-12-15T19:08:15;0.50;76.10
32524;DHT22;18965;52.242;20.886;2022-12-15T19:11:00;0.10;76.40
32524;DHT22;18965;52.242;20.886;2022-12-15T19:13:31;0.30;76.70
32524;DHT22;18965;52.242;20.886;2022-12-15T19:15:58;0.40;77.60
32524;DHT22;18965;52.242;20.886;2022-12-15T19:18:24;0.40;77.10
32524;DHT22;18965;52.242;20.886;2022-12-15T19:24:06;0.30;76.90
32524;DHT22;18965;52.242;20.886;2022-12-15T19:26:34;0.50;77.00
32524;DHT22;18965;52.242;20.886;2022-12-15T19:29:00;0.30;76.90
32524;DHT22;18965;52.242;20.886;2022-12-15T19:31:26;0.30;76.60
32524;DHT22;18965;52.242;20.886;2022-12-15T19:33:52;0.40;76.30
32524;DHT22;18965;52.242;20.886;2022-12-15T19:36:21;0.50;77.00
32524;DHT22;18965;52.242;20.886;2022-12-15T19:38:53;0.50;79.50
32524;DHT22;18965;52.242;20.886;2022-12-15T19:41:19;0.40;75.40
32524;DHT22;18965;52.242;20.886;2022-12-15T19:43:45;0.30;77.90
32524;DHT22;18965;52.242;20.886;2022-12-15T19:46:20;0.30;81.60